sensor_id;sensor_type;location;lat;lon;timestamp;pressure;altitude;pressure_sealevel;temperature;humidity
55068;BME280;40965;52.368;9.712;2024-01-11T00:00:05;102608.78;;;-6.66;100.00
55068;BME280;40965;52.368;9.712;2024-01-11T00:02:32;102613.69;;;-6.68;100.00
55068;BME280;40965;52.368;9.712;2024-01-11T00:04:59;102599.72;;;-6.62;100.00
55068;BME280;40965;52.368;9.712;2024-01-11T00:07:26;102603.81;;;-6.65;100.00
55068;BME280;40965;52.368;9.712;2024-01-11T00:09:52;102607.25;;;-6.64;100.00
55068;BME280;40965;52.368;9.712;2024-01-11T00:12:19;102609.66;;;-6.66;100.00
55068;BME280;40965;52.368;9.712;2024-01-11T00:14:45;102607.38;;;-6.62;100.00
55068;BME280;40965;52.368;9.712;2024-01-11T00:17:12;102622.66;;;-6.62;100.00
55068;BME280;40965;52.368;9.712;2024-01-11T00:19:44;102620.56;;;-6.58;100.00
55068;BME280;40965;52.368;9.712;2024-01-11T00:22:11;102604.22;;;-6.60;100.00
55068;BME280;40965;52.368;9.712;2024-01-11T00:24:37;102597.31;;;-6.61;100.00
55068;BME280;40965;52.368;9.712;2024-01-11T00:27:07;102594.50;;;-6.64;100.00
55068;BME280;40965;52.368;9.712;2024-01-11T00:29:35;102596.03;;;-6.66;100.00
55068;BME280;40965;52.368;9.712;2024-01-11T00:32:02;102592.91;;;-6.72;100.00
55068;BME280;40965;52.368;9.712;2024-01-11T00:34:31;102584.22;;;-6.74;100.00
55068;BME280;40965;52.368;9.712;2024-01-11T00:36:58;102586.03;;;-6.73;100.00
55068;BME280;40965;52.368;9.712;2024-01-11T00:39:25;102586.03;;;-6.73;100.00
55068;BME280;40965;52.368;9.712;2024-01-11T00:41:52;102582.44;;;-6.75;100.00
55068;BME280;40965;52.368;9.712;2024-01-11T00:44:18;102574.50;;;-6.78;100.00
55068;BME280;40965;52.368;9.712;2024-01-11T00:46:45;102579.47;;;-6.80;100.00
55068;BME280;40965;52.368;9.712;2024-01-11T00:49:12;102588.59;;;-6.82;100.00
55068;BME280;40965;52.368;9.712;2024-01-11T00:51:38;102574.50;;;-6.78;100.00
55068;BME280;40965;52.368;9.712;2024-01-11T00:54:08;102586.38;;;-6.79;100.00
55068;BME280;40965;52.368;9.712;2024-01-11T00:56:35;102604.34;;;-6.86;100.00
55068;BME280;40965;52.368;9.712;2024-01-11T00:59:03;102605.41;;;-6.84;100.00
55068;BME280;40965;52.368;9.712;2024-01-11T01:01:29;102606.56;;;-6.81;100.00
55068;BME280;40965;52.368;9.712;2024-01-11T01:03:58;102599.53;;;-6.83;100.00
55068;BME280;40965;52.368;9.712;2024-01-11T01:06:25;102613.97;;;-6.92;100.00
55068;BME280;40965;52.368;9.712;2024-01-11T01:08:53;102605.91;;;-6.97;100.00
55068;BME280;40965;52.368;9.712;2024-01-11T01:11:20;102597.94;;;-6.91;100.00
55068;BME280;40965;52.368;9.712;2024-01-11T01:13:47;102593.94;;;-6.98;100.00
55068;BME280;40965;52.368;9.712;2024-01-11T01:16:13;102580.94;;;-7.01;100.00
55068;BME280;40965;52.368;9.712;2024-01-11T01:18:42;102577.19;;;-7.05;100.00
55068;BME280;40965;52.368;9.712;2024-01-11T01:21:08;102572.56;;;-7.09;100.00
55068;BME280;40965;52.368;9.712;2024-01-11T01:23:35;102570.78;;;-7.10;100.00
55068;BME280;40965;52.368;9.712;2024-01-11T01:26:02;102561.06;;;-7.14;100.00
55068;BME280;40965;52.368;9.712;2024-01-11T01:28:28;102560.00;;;-7.16;100.00
55068;BME280;40965;52.368;9.712;2024-01-11T01:30:55;102566.75;;;-7.17;100.00
55068;BME280;40965;52.368;9.712;2024-01-11T01:33:22;102576.47;;;-7.12;100.00
55068;BME280;40965;52.368;9.712;2024-01-11T01:35:49;102572.41;;;-7.10;100.00
55068;BME280;40965;52.368;9.712;2024-01-11T01:38:18;102580.81;;;-7.11;100.00
55068;BME280;40965;52.368;9.712;2024-01-11T01:40:45;102594.28;;;-7.12;100.00
55068;BME280;40965;52.368;9.712;2024-01-11T01:43:11;102601.94;;;-7.12;100.00
55068;BME280;40965;52.368;9.712;2024-01-11T01:45:39;102591.13;;;-7.10;100.00
55068;BME280;40965;52.368;9.712;2024-01-11T01:48:06;102595.19;;;-7.12;100.00
55068;BME280;40965;52.368;9.712;2024-01-11T01:50:33;102579.03;;;-7.12;100.00
55068;BME280;40965;52.368;9.712;2024-01-11T01:53:00;102585.19;;;-7.19;100.00
55068;BME280;40965;52.368;9.712;2024-01-11T01:55:28;102586.53;;;-7.23;100.00
55068;BME280;40965;52.368;9.712;2024-01-11T01:57:56;102591.78;;;-7.21;100.00
55068;BME280;40965;52.368;9.712;2024-01-11T02:00:24;102598.06;;;-7.18;100.00
55068;BME280;40965;52.368;9.712;2024-01-11T02:02:51;102585.19;;;-7.19;100.00
55068;BME280;40965;52.368;9.712;2024-01-11T02:05:18;102588.63;;;-7.19;100.00
55068;BME280;40965;52.368;9.712;2024-01-11T02:07:45;102583.66;;;-7.17;100.00
55068;BME280;40965;52.368;9.712;2024-01-11T02:10:12;102586.22;;;-7.17;100.00
55068;BME280;40965;52.368;9.712;2024-01-11T02:12:39;102579.63;;;-7.15;100.00
55068;BME280;40965;52.368;9.712;2024-01-11T02:15:06;102574.69;;;-7.13;100.00
55068;BME280;40965;52.368;9.712;2024-01-11T02:17:36;102573.78;;;-7.14;100.00
55068;BME280;40965;52.368;9.712;2024-01-11T02:20:02;102575.41;;;-7.15;100.00
55068;BME280;40965;52.368;9.712;2024-01-11T02:22:35;102577.22;;;-7.13;100.00
55068;BME280;40965;52.368;9.712;2024-01-11T02:25:03;102573.94;;;-7.12;100.00
55068;BME280;40965;52.368;9.712;2024-01-11T02:27:30;102571.25;;;-7.14;100.00
55068;BME280;40965;52.368;9.712;2024-01-11T02:29:56;102586.22;;;-7.17;100.00
55068;BME280;40965;52.368;9.712;2024-01-11T02:32:23;102588.75;;;-7.17;100.00
55068;BME280;40965;52.368;9.712;2024-01-11T02:34:50;102583.66;;;-7.17;100.00
55068;BME280;40965;52.368;9.712;2024-01-11T02:37:18;102572.75;;;-7.16;100.00
55068;BME280;40965;52.368;9.712;2024-01-11T02:39:44;102572.00;;;-7.15;100.00
55068;BME280;40965;52.368;9.712;2024-01-11T02:42:11;102561.06;;;-7.14;100.00
55068;BME280;40965;52.368;9.712;2024-01-11T02:44:37;102554.31;;;-7.13;100.00
55068;BME280;40965;52.368;9.712;2024-01-11T02:47:04;102549.22;;;-7.13;100.00
55068;BME280;40965;52.368;9.712;2024-01-11T02:49:31;102547.59;;;-7.13;100.00
55068;BME280;40965;52.368;9.712;2024-01-11T02:51:57;102563.13;;;-7.10;100.00
55068;BME280;40965;52.368;9.712;2024-01-11T02:54:24;102560.16;;;-7.15;100.00
55068;BME280;40965;52.368;9.712;2024-01-11T02:56:51;102555.53;;;-7.19;100.00
55068;BME280;40965;52.368;9.712;2024-01-11T02:59:17;102545.50;;;-7.17;100.00
55068;BME280;40965;52.368;9.712;2024-01-11T03:01:47;102537.84;;;-7.17;100.00
55068;BME280;40965;52.368;9.712;2024-01-11T03:04:14;102545.97;;;-7.21;100.00
55068;BME280;40965;52.368;9.712;2024-01-11T03:06:41;102544.97;;;-7.32;100.00
55068;BME280;40965;52.368;9.712;2024-01-11T03:09:11;102558.16;;;-7.36;100.00
55068;BME280;40965;52.368;9.712;2024-01-11T03:11:38;102565.47;;;-7.39;100.00
55068;BME280;40965;52.368;9.712;2024-01-11T03:14:04;102559.38;;;-7.41;100.00
55068;BME280;40965;52.368;9.712;2024-01-11T03:16:31;102572.09;;;-7.41;100.00
55068;BME280;40965;52.368;9.712;2024-01-11T03:18:58;102556.81;;;-7.41;100.00
55068;BME280;40965;52.368;9.712;2024-01-11T03:21:24;102558.44;;;-7.42;100.00
55068;BME280;40965;52.368;9.712;2024-01-11T03:23:51;102550.53;;;-7.45;100.00
55068;BME280;40965;52.368;9.712;2024-01-11T03:26:18;102560.84;;;-7.43;100.00
55068;BME280;40965;52.368;9.712;2024-01-11T03:28:44;102561.78;;;-7.43;100.00
55068;BME280;40965;52.368;9.712;2024-01-11T03:31:14;102563.53;;;-7.42;100.00
55068;BME280;40965;52.368;9.712;2024-01-11T03:33:41;102553.38;;;-7.42;100.00
55068;BME280;40965;52.368;9.712;2024-01-11T03:36:09;102557.84;;;-7.39;100.00
55068;BME280;40965;52.368;9.712;2024-01-11T03:38:36;102558.03;;;-7.38;100.00
55068;BME280;40965;52.368;9.712;2024-01-11T03:41:10;102557.41;;;-7.35;100.00
55068;BME280;40965;52.368;9.712;2024-01-11T03:43:37;102572.69;;;-7.35;100.00
55068;BME280;40965;52.368;9.712;2024-01-11T03:46:04;102574.78;;;-7.40;100.00
55068;BME280;40965;52.368;9.712;2024-01-11T03:48:31;102584.81;;;-7.41;100.00
55068;BME280;40965;52.368;9.712;2024-01-11T03:50:58;102590.03;;;-7.40;100.00
55068;BME280;40965;52.368;9.712;2024-01-11T03:53:25;102584.22;;;-7.39;100.00
55068;BME280;40965;52.368;9.712;2024-01-11T03:55:52;102570.75;;;-7.38;100.00
55068;BME280;40965;52.368;9.712;2024-01-11T03:58:18;102568.94;;;-7.39;100.00
55068;BME280;40965;52.368;9.712;2024-01-11T04:00:45;102569.69;;;-7.40;100.00
55068;BME280;40965;52.368;9.712;2024-01-11T04:03:12;102575.97;;;-7.36;100.00
55068;BME280;40965;52.368;9.712;2024-01-11T04:05:39;102570.13;;;-7.35;100.00
55068;BME280;40965;52.368;9.712;2024-01-11T04:08:06;102586.16;;;-7.36;100.00
55068;BME280;40965;52.368;9.712;2024-01-11T04:10:33;102592.41;;;-7.33;100.00
55068;BME280;40965;52.368;9.712;2024-01-11T04:13:00;102580.59;;;-7.32;100.00
55068;BME280;40965;52.368;9.712;2024-01-11T04:15:26;102558.72;;;-7.30;100.00
55068;BME280;40965;52.368;9.712;2024-01-11T04:17:53;102562.91;;;-7.31;100.00
55068;BME280;40965;52.368;9.712;2024-01-11T04:20:19;102559.31;;;-7.33;100.00
55068;BME280;40965;52.368;9.712;2024-01-11T04:22:46;102559.50;;;-7.31;100.00
55068;BME280;40965;52.368;9.712;2024-01-11T04:25:13;102558.09;;;-7.27;100.00
55068;BME280;40965;52.368;9.712;2024-01-11T04:27:39;102552.13;;;-7.28;100.00
55068;BME280;40965;52.368;9.712;2024-01-11T04:30:07;102539.41;;;-7.28;100.00
55068;BME280;40965;52.368;9.712;2024-01-11T04:32:34;102541.06;;;-7.28;100.00
55068;BME280;40965;52.368;9.712;2024-01-11T04:35:00;102551.25;;;-7.28;100.00
55068;BME280;40965;52.368;9.712;2024-01-11T04:37:27;102553.63;;;-7.30;100.00
55068;BME280;40965;52.368;9.712;2024-01-11T04:39:54;102561.56;;;-7.27;100.00
55068;BME280;40965;52.368;9.712;2024-01-11T04:42:20;102551.25;;;-7.28;100.00
55068;BME280;40965;52.368;9.712;2024-01-11T04:44:47;102541.69;;;-7.31;100.00
55068;BME280;40965;52.368;9.712;2024-01-11T04:47:17;102544.34;;;-7.29;100.00
55068;BME280;40965;52.368;9.712;2024-01-11T04:49:43;102546.44;;;-7.25;100.00
55068;BME280;40965;52.368;9.712;2024-01-11T04:52:12;102544.03;;;-7.24;100.00
55068;BME280;40965;52.368;9.712;2024-01-11T04:54:39;102559.50;;;-7.31;100.00
55068;BME280;40965;52.368;9.712;2024-01-11T04:57:07;102558.56;;;-7.32;100.00
55068;BME280;40965;52.368;9.712;2024-01-11T04:59:34;102571.16;;;-7.33;100.00
55068;BME280;40965;52.368;9.712;2024-01-11T05:02:03;102578.19;;;-7.39;100.00
55068;BME280;40965;52.368;9.712;2024-01-11T05:04:30;102596.50;;;-7.52;100.00
55068;BME280;40965;52.368;9.712;2024-01-11T05:06:59;102600.22;;;-7.57;100.00
55068;BME280;40965;52.368;9.712;2024-01-11T05:09:26;102605.97;;;-7.60;100.00
55068;BME280;40965;52.368;9.712;2024-01-11T05:11:52;102609.38;;;-7.59;100.00
55068;BME280;40965;52.368;9.712;2024-01-11T05:14:19;102616.41;;;-7.66;100.00
55068;BME280;40965;52.368;9.712;2024-01-11T05:16:46;102617.16;;;-7.58;100.00
55068;BME280;40965;52.368;9.712;2024-01-11T05:19:12;102616.72;;;-7.62;100.00
55068;BME280;40965;52.368;9.712;2024-01-11T05:21:39;102616.88;;;-7.61;100.00
55068;BME280;40965;52.368;9.712;2024-01-11T05:24:05;102613.59;;;-7.60;100.00
55068;BME280;40965;52.368;9.712;2024-01-11T05:26:32;102613.13;;;-7.65;100.00
55068;BME280;40965;52.368;9.712;2024-01-11T05:28:59;102608.78;;;-7.57;100.00
55068;BME280;40965;52.368;9.712;2024-01-11T05:31:25;102604.56;;;-7.56;100.00
55068;BME280;40965;52.368;9.712;2024-01-11T05:33:52;102600.22;;;-7.57;100.00
55068;BME280;40965;52.368;9.712;2024-01-11T05:36:19;102593.97;;;-7.61;100.00
55068;BME280;40965;52.368;9.712;2024-01-11T05:38:45;102595.47;;;-7.63;100.00
55068;BME280;40965;52.368;9.712;2024-01-11T05:41:12;102583.69;;;-7.71;100.00
55068;BME280;40965;52.368;9.712;2024-01-11T05:43:39;102598.06;;;-7.81;100.00
55068;BME280;40965;52.368;9.712;2024-01-11T05:46:07;102584.28;;;-7.83;100.00
55068;BME280;40965;52.368;9.712;2024-01-11T05:48:36;102581.31;;;-7.87;100.00
55068;BME280;40965;52.368;9.712;2024-01-11T05:51:03;102582.19;;;-7.87;100.00
55068;BME280;40965;52.368;9.712;2024-01-11T05:53:36;102587.56;;;-7.84;100.00
55068;BME280;40965;52.368;9.712;2024-01-11T05:56:12;102589.50;;;-7.81;100.00
55068;BME280;40965;52.368;9.712;2024-01-11T05:58:39;102590.41;;;-7.81;100.00
55068;BME280;40965;52.368;9.712;2024-01-11T06:01:06;102596.38;;;-7.80;100.00
55068;BME280;40965;52.368;9.712;2024-01-11T06:03:32;102574.72;;;-7.85;100.00
55068;BME280;40965;52.368;9.712;2024-01-11T06:06:00;102565.47;;;-7.85;100.00
55068;BME280;40965;52.368;9.712;2024-01-11T06:08:28;102573.50;;;-7.80;100.00
55068;BME280;40965;52.368;9.712;2024-01-11T06:10:58;102571.41;;;-7.75;100.00
55068;BME280;40965;52.368;9.712;2024-01-11T06:13:25;102575.72;;;-7.74;100.00
55068;BME280;40965;52.368;9.712;2024-01-11T06:15:53;102589.78;;;-7.69;100.00
55068;BME280;40965;52.368;9.712;2024-01-11T06:18:22;102589.66;;;-7.71;100.00
55068;BME280;40965;52.368;9.712;2024-01-11T06:20:49;102586.22;;;-7.71;100.00
55068;BME280;40965;52.368;9.712;2024-01-11T06:23:15;102571.84;;;-7.71;100.00
55068;BME280;40965;52.368;9.712;2024-01-11T06:25:43;102563.78;;;-7.75;100.00
55068;BME280;40965;52.368;9.712;2024-01-11T06:28:11;102572.31;;;-7.75;100.00
55068;BME280;40965;52.368;9.712;2024-01-11T06:30:38;102566.75;;;-7.79;100.00
55068;BME280;40965;52.368;9.712;2024-01-11T06:33:04;102575.16;;;-7.81;100.00
55068;BME280;40965;52.368;9.712;2024-01-11T06:35:31;102577.25;;;-7.76;100.00
55068;BME280;40965;52.368;9.712;2024-01-11T06:37:58;102569.47;;;-7.78;100.00
55068;BME280;40965;52.368;9.712;2024-01-11T06:40:27;102570.97;;;-7.80;100.00
55068;BME280;40965;52.368;9.712;2024-01-11T06:42:54;102582.78;;;-7.81;100.00
55068;BME280;40965;52.368;9.712;2024-01-11T06:45:26;102581.72;;;-7.83;100.00
55068;BME280;40965;52.368;9.712;2024-01-11T06:47:53;102585.34;;;-7.81;100.00
55068;BME280;40965;52.368;9.712;2024-01-11T06:50:20;102570.09;;;-7.81;100.00
55068;BME280;40965;52.368;9.712;2024-01-11T06:52:49;102570.69;;;-7.83;100.00
55068;BME280;40965;52.368;9.712;2024-01-11T06:55:19;102577.56;;;-7.82;100.00
55068;BME280;40965;52.368;9.712;2024-01-11T06:57:48;102575.16;;;-7.81;100.00
55068;BME280;40965;52.368;9.712;2024-01-11T07:00:20;102572.47;;;-7.82;100.00
55068;BME280;40965;52.368;9.712;2024-01-11T07:02:48;102580.09;;;-7.82;100.00
55068;BME280;40965;52.368;9.712;2024-01-11T07:05:15;102575.03;;;-7.82;100.00
55068;BME280;40965;52.368;9.712;2024-01-11T07:07:42;102576.66;;;-7.83;100.00
55068;BME280;40965;52.368;9.712;2024-01-11T07:10:09;102582.03;;;-7.79;100.00
55068;BME280;40965;52.368;9.712;2024-01-11T07:12:38;102601.16;;;-7.74;100.00
55068;BME280;40965;52.368;9.712;2024-01-11T07:15:08;102607.16;;;-7.74;100.00
55068;BME280;40965;52.368;9.712;2024-01-11T07:17:35;102606.25;;;-7.74;100.00
55068;BME280;40965;52.368;9.712;2024-01-11T07:20:05;102618.97;;;-7.74;100.00
55068;BME280;40965;52.368;9.712;2024-01-11T07:22:33;102620.75;;;-7.73;100.00
55068;BME280;40965;52.368;9.712;2024-01-11T07:25:00;102634.38;;;-7.73;100.00
55068;BME280;40965;52.368;9.712;2024-01-11T07:27:26;102629.88;;;-7.67;100.00
55068;BME280;40965;52.368;9.712;2024-01-11T07:29:53;102631.22;;;-7.61;100.00
55068;BME280;40965;52.368;9.712;2024-01-11T07:32:20;102631.22;;;-7.61;100.00
55068;BME280;40965;52.368;9.712;2024-01-11T07:34:47;102625.25;;;-7.62;100.00
55068;BME280;40965;52.368;9.712;2024-01-11T07:37:16;102629.72;;;-7.59;100.00
55068;BME280;40965;52.368;9.712;2024-01-11T07:39:42;102622.53;;;-7.55;100.00
55068;BME280;40965;52.368;9.712;2024-01-11T07:42:11;102628.81;;;-7.51;100.00
55068;BME280;40965;52.368;9.712;2024-01-11T07:44:40;102643.00;;;-7.44;100.00
55068;BME280;40965;52.368;9.712;2024-01-11T07:47:09;102649.44;;;-7.39;100.00
55068;BME280;40965;52.368;9.712;2024-01-11T07:49:36;102637.63;;;-7.39;100.00
55068;BME280;40965;52.368;9.712;2024-01-11T07:52:04;102633.09;;;-7.33;100.00
55068;BME280;40965;52.368;9.712;2024-01-11T07:54:33;102627.13;;;-7.33;100.00
55068;BME280;40965;52.368;9.712;2024-01-11T07:57:15;102621.91;;;-7.35;100.00
55068;BME280;40965;52.368;9.712;2024-01-11T07:59:44;102623.38;;;-7.37;100.00
55068;BME280;40965;52.368;9.712;2024-01-11T08:02:14;102613.81;;;-7.31;100.00
55068;BME280;40965;52.368;9.712;2024-01-11T08:04:43;102619.03;;;-7.29;100.00
55068;BME280;40965;52.368;9.712;2024-01-11T08:07:13;102619.19;;;-7.27;100.00
55068;BME280;40965;52.368;9.712;2024-01-11T08:09:39;102630.53;;;-7.24;100.00
55068;BME280;40965;52.368;9.712;2024-01-11T08:12:11;102617.69;;;-7.25;100.00
55068;BME280;40965;52.368;9.712;2024-01-11T08:14:40;102617.97;;;-7.22;100.00
55068;BME280;40965;52.368;9.712;2024-01-11T08:17:10;102621.69;;;-7.19;100.00
55068;BME280;40965;52.368;9.712;2024-01-11T08:19:38;102632.81;;;-7.18;100.00
55068;BME280;40965;52.368;9.712;2024-01-11T08:22:06;102622.63;;;-7.18;100.00
55068;BME280;40965;52.368;9.712;2024-01-11T08:24:32;102618.28;;;-7.19;100.00
55068;BME280;40965;52.368;9.712;2024-01-11T08:27:00;102620.22;;;-7.25;100.00
55068;BME280;40965;52.368;9.712;2024-01-11T08:29:27;102619.47;;;-7.24;100.00
55068;BME280;40965;52.368;9.712;2024-01-11T08:31:54;102625.78;;;-7.21;100.00
55068;BME280;40965;52.368;9.712;2024-01-11T08:34:22;102630.09;;;-7.20;100.00
55068;BME280;40965;52.368;9.712;2024-01-11T08:36:51;102629.06;;;-7.22;100.00
55068;BME280;40965;52.368;9.712;2024-01-11T08:39:18;102622.03;;;-7.24;100.00
55068;BME280;40965;52.368;9.712;2024-01-11T08:41:46;102608.38;;;-7.25;100.00
55068;BME280;40965;52.368;9.712;2024-01-11T08:44:13;102620.81;;;-7.19;100.00
55068;BME280;40965;52.368;9.712;2024-01-11T08:46:40;102640.38;;;-7.01;100.00
55068;BME280;40965;52.368;9.712;2024-01-11T08:49:09;102651.66;;;-6.79;100.00
55068;BME280;40965;52.368;9.712;2024-01-11T08:51:36;102670.44;;;-6.60;100.00
55068;BME280;40965;52.368;9.712;2024-01-11T08:54:03;102663.97;;;-6.47;100.00
55068;BME280;40965;52.368;9.712;2024-01-11T08:56:36;102654.66;;;-6.47;100.00
55068;BME280;40965;52.368;9.712;2024-01-11T08:59:04;102655.97;;;-6.42;100.00
55068;BME280;40965;52.368;9.712;2024-01-11T09:01:31;102650.34;;;-6.29;100.00
55068;BME280;40965;52.368;9.712;2024-01-11T09:04:00;102651.94;;;-6.21;100.00
55068;BME280;40965;52.368;9.712;2024-01-11T09:06:27;102639.28;;;-6.10;100.00
55068;BME280;40965;52.368;9.712;2024-01-11T09:08:53;102635.84;;;-6.11;100.00
55068;BME280;40965;52.368;9.712;2024-01-11T09:11:20;102630.97;;;-5.99;100.00
55068;BME280;40965;52.368;9.712;2024-01-11T09:13:47;102629.31;;;-5.88;100.00
55068;BME280;40965;52.368;9.712;2024-01-11T09:16:16;102643.88;;;-5.87;100.00
55068;BME280;40965;52.368;9.712;2024-01-11T09:18:43;102637.59;;;-5.91;100.00
55068;BME280;40965;52.368;9.712;2024-01-11T09:21:14;102644.69;;;-5.78;100.00
55068;BME280;40965;52.368;9.712;2024-01-11T09:23:40;102654.69;;;-5.71;100.00
55068;BME280;40965;52.368;9.712;2024-01-11T09:26:07;102662.50;;;-5.69;100.00
55068;BME280;40965;52.368;9.712;2024-01-11T09:28:33;102652.97;;;-5.61;100.00
55068;BME280;40965;52.368;9.712;2024-01-11T09:31:00;102659.09;;;-5.59;100.00
55068;BME280;40965;52.368;9.712;2024-01-11T09:33:29;102655.03;;;-5.57;100.00
55068;BME280;40965;52.368;9.712;2024-01-11T09:35:55;102662.44;;;-5.50;100.00
55068;BME280;40965;52.368;9.712;2024-01-11T09:38:22;102655.84;;;-5.48;100.00
55068;BME280;40965;52.368;9.712;2024-01-11T09:41:14;102647.63;;;-5.54;100.00
55068;BME280;40965;52.368;9.712;2024-01-11T09:43:45;102637.44;;;-5.54;100.00
55068;BME280;40965;52.368;9.712;2024-01-11T09:46:17;102630.94;;;-5.51;100.00
55068;BME280;40965;52.368;9.712;2024-01-11T09:48:46;102622.91;;;-5.45;100.00
55068;BME280;40965;52.368;9.712;2024-01-11T09:51:13;102608.78;;;-5.41;100.00
55068;BME280;40965;52.368;9.712;2024-01-11T09:53:40;102607.94;;;-5.32;100.00
55068;BME280;40965;52.368;9.712;2024-01-11T09:56:10;102607.56;;;-5.26;100.00
55068;BME280;40965;52.368;9.712;2024-01-11T09:58:38;102606.06;;;-5.24;100.00
55068;BME280;40965;52.368;9.712;2024-01-11T10:01:11;102604.25;;;-5.25;100.00
55068;BME280;40965;52.368;9.712;2024-01-11T10:03:40;102610.03;;;-5.17;100.00
55068;BME280;40965;52.368;9.712;2024-01-11T10:06:08;102615.88;;;-5.18;100.00
55068;BME280;40965;52.368;9.712;2024-01-11T10:08:36;102612.09;;;-5.03;100.00
55068;BME280;40965;52.368;9.712;2024-01-11T10:11:03;102609.16;;;-4.97;100.00
55068;BME280;40965;52.368;9.712;2024-01-11T10:13:32;102607.41;;;-4.88;100.00
55068;BME280;40965;52.368;9.712;2024-01-11T10:16:11;102598.88;;;-4.78;100.00
55068;BME280;40965;52.368;9.712;2024-01-11T10:18:41;102594.94;;;-4.64;100.00
55068;BME280;40965;52.368;9.712;2024-01-11T10:21:13;102592.34;;;-4.43;100.00
55068;BME280;40965;52.368;9.712;2024-01-11T10:23:41;102595.19;;;-4.30;100.00
55068;BME280;40965;52.368;9.712;2024-01-11T10:26:08;102593.38;;;-4.21;100.00
55068;BME280;40965;52.368;9.712;2024-01-11T10:28:35;102593.91;;;-4.25;100.00
55068;BME280;40965;52.368;9.712;2024-01-11T10:31:03;102593.75;;;-4.26;100.00
55068;BME280;40965;52.368;9.712;2024-01-11T10:33:33;102591.59;;;-4.32;100.00
55068;BME280;40965;52.368;9.712;2024-01-11T10:36:03;102593.78;;;-4.37;100.00
55068;BME280;40965;52.368;9.712;2024-01-11T10:38:36;102596.34;;;-4.37;100.00
55068;BME280;40965;52.368;9.712;2024-01-11T10:41:04;102606.06;;;-4.33;100.00
55068;BME280;40965;52.368;9.712;2024-01-11T10:43:36;102595.81;;;-4.22;100.00
55068;BME280;40965;52.368;9.712;2024-01-11T10:46:04;102607.56;;;-4.14;100.00
55068;BME280;40965;52.368;9.712;2024-01-11T10:48:39;102614.59;;;-4.01;100.00
55068;BME280;40965;52.368;9.712;2024-01-11T10:51:16;102607.44;;;-4.05;100.00
55068;BME280;40965;52.368;9.712;2024-01-11T10:53:46;102610.50;;;-4.09;100.00
55068;BME280;40965;52.368;9.712;2024-01-11T10:56:16;102603.97;;;-4.16;100.00
55068;BME280;40965;52.368;9.712;2024-01-11T10:58:44;102601.41;;;-4.16;100.00
55068;BME280;40965;52.368;9.712;2024-01-11T11:01:12;102602.97;;;-4.18;100.00
55068;BME280;40965;52.368;9.712;2024-01-11T11:03:43;102607.56;;;-4.14;100.00
55068;BME280;40965;52.368;9.712;2024-01-11T11:06:11;102599.25;;;-4.01;100.00
55068;BME280;40965;52.368;9.712;2024-01-11T11:08:39;102609.19;;;-3.94;100.00
55068;BME280;40965;52.368;9.712;2024-01-11T11:11:06;102601.50;;;-3.84;100.00
55068;BME280;40965;52.368;9.712;2024-01-11T11:13:34;102603.28;;;-3.83;100.00
55068;BME280;40965;52.368;9.712;2024-01-11T11:16:01;102602.22;;;-3.74;100.00
55068;BME280;40965;52.368;9.712;2024-01-11T11:18:29;102598.91;;;-3.73;100.00
55068;BME280;40965;52.368;9.712;2024-01-11T11:20:57;102598.91;;;-3.73;100.00
55068;BME280;40965;52.368;9.712;2024-01-11T11:23:24;102598.25;;;-3.71;100.00
55068;BME280;40965;52.368;9.712;2024-01-11T11:25:54;102595.19;;;-3.67;100.00
55068;BME280;40965;52.368;9.712;2024-01-11T11:28:22;102593.25;;;-3.69;100.00
55068;BME280;40965;52.368;9.712;2024-01-11T11:30:49;102592.63;;;-3.67;100.00
55068;BME280;40965;52.368;9.712;2024-01-11T11:33:23;102589.59;;;-3.73;100.00
55068;BME280;40965;52.368;9.712;2024-01-11T11:35:55;102589.72;;;-3.71;100.00
55068;BME280;40965;52.368;9.712;2024-01-11T11:38:30;102588.31;;;-3.78;100.00
55068;BME280;40965;52.368;9.712;2024-01-11T11:40:59;102586.13;;;-3.73;100.00
55068;BME280;40965;52.368;9.712;2024-01-11T11:43:32;102577.44;;;-3.75;100.00
55068;BME280;40965;52.368;9.712;2024-01-11T11:46:01;102568.19;;;-3.73;100.00
55068;BME280;40965;52.368;9.712;2024-01-11T11:53:53;102552.66;;;-3.54;100.00
55068;BME280;40965;52.368;9.712;2024-01-11T11:56:21;102539.25;;;-3.62;100.00
55068;BME280;40965;52.368;9.712;2024-01-11T11:58:51;102540.25;;;-3.60;100.00
55068;BME280;40965;52.368;9.712;2024-01-11T12:01:20;102533.16;;;-3.52;100.00
55068;BME280;40965;52.368;9.712;2024-01-11T12:03:47;102533.88;;;-3.43;100.00
55068;BME280;40965;52.368;9.712;2024-01-11T12:06:16;102534.25;;;-3.38;100.00
55068;BME280;40965;52.368;9.712;2024-01-11T12:08:46;102534.97;;;-3.29;100.00
55068;BME280;40965;52.368;9.712;2024-01-11T12:11:18;102531.00;;;-3.25;100.00
55068;BME280;40965;52.368;9.712;2024-01-11T12:13:49;102521.34;;;-3.18;100.00
55068;BME280;40965;52.368;9.712;2024-01-11T12:16:18;102514.41;;;-3.19;100.00
55068;BME280;40965;52.368;9.712;2024-01-11T12:18:45;102507.75;;;-3.17;100.00
55068;BME280;40965;52.368;9.712;2024-01-11T12:21:11;102506.06;;;-3.16;100.00
55068;BME280;40965;52.368;9.712;2024-01-11T12:23:47;102507.81;;;-3.05;100.00
55068;BME280;40965;52.368;9.712;2024-01-11T12:26:17;102503.25;;;-2.97;100.00
55068;BME280;40965;52.368;9.712;2024-01-11T12:28:47;102511.88;;;-2.85;100.00
55068;BME280;40965;52.368;9.712;2024-01-11T12:31:16;102511.19;;;-2.82;100.00
55068;BME280;40965;52.368;9.712;2024-01-11T12:33:44;102515.13;;;-2.75;100.00
55068;BME280;40965;52.368;9.712;2024-01-11T12:36:12;102519.28;;;-2.66;100.00
55068;BME280;40965;52.368;9.712;2024-01-11T12:38:46;102530.03;;;-2.47;100.00
55068;BME280;40965;52.368;9.712;2024-01-11T12:41:14;102511.94;;;-2.49;100.00
55068;BME280;40965;52.368;9.712;2024-01-11T12:43:42;102506.94;;;-2.47;100.00
55068;BME280;40965;52.368;9.712;2024-01-11T12:46:09;102505.47;;;-2.44;100.00
55068;BME280;40965;52.368;9.712;2024-01-11T12:48:36;102505.81;;;-2.39;100.00